Terminal Aerodrome Forecast
Issued by NWS

Home | Current Version | Previous Version | Text Only | Print | Product List | Glossary On
Versions: 1 2 3 4 5 6 7 8 9 10 11 12 13 14 15 16 17 18 19 20 21 22 23 24 25 26 27 28
000
FTUS45 KSLC 191137
TAFENV
TAF
KENV 191137Z 1912/2012 VRB03KT P6SM FEW080 SCT120
     FM191900 VRB05KT P6SM SCT080 BKN100
     FM200200 VRB03KT P6SM VCSH SCT040 BKN060
      AMD LTD TO CLD VIS AND WIND=

USA.gov is the U.S. government's official web portal to all federal, state and local government web resources and services.